GMT,Max TemperatureF,Mean TemperatureF,Min TemperatureF,Max Dew PointF,MeanDew PointF,Min DewpointF,Max Humidity, Mean Humidity, Min Humidity, Max Sea Level PressureIn, Mean Sea Level PressureIn, Min Sea Level PressureIn, Max VisibilityMiles, Mean VisibilityMiles, Min VisibilityMiles, Max Wind SpeedMPH, Mean Wind SpeedMPH, Max Gust SpeedMPH,PrecipitationIn, CloudCover, Events, WindDirDegrees
2014-1-1,51,45,39,49,42,37,91,88,83,,,,,,,30,17,,0.12,,,-1
2014-1-2,48,46,44,44,42,39,95,85,73,29.27,29.21,29.09,6,6,6,23,17,,0.01,2,Rain,186
2014-1-3,46,44,42,46,40,38,93,80,67,29.12,29.03,28.97,6,6,5,37,25,36,0.01,4,Rain,191
2014-1-4,44,42,39,41,39,36,93,83,67,29.27,29.18,29.12,6,6,6,34,16,,0.01,2,Rain,184
2014-1-5,49,43,37,48,40,34,100,88,71,29.44,29.29,29.03,6,6,3,31,18,43,0.03,5,Rain,144
2014-1-6,50,47,44,45,43,41,93,80,63,29.12,29.04,29.00,6,6,4,28,19,38,0.12,5,Rain,174
2014-1-7,48,46,45,45,43,41,93,82,69,29.50,29.37,29.27,6,6,6,29,22,,0.02,2,Rain,201
2014-1-8,47,44,42,46,44,40,100,91,76,29.86,29.78,29.68,6,6,4,29,16,,0.31,2,Rain,201
2014-1-9,45,42,39,43,41,38,96,89,78,29.77,29.65,29.50,6,6,6,20,14,,0.00,3,Rain,274
2014-1-10,47,44,42,45,42,38,100,88,76,29.83,29.79,29.74,6,6,3,17,14,,0.04,3,Rain,169
2014-1-11,44,40,35,42,38,33,93,85,71,30.18,30.07,29.92,6,6,5,14,8,26,0.08,2,Rain,272
2014-1-12,45,38,31,43,37,30,100,90,76,30.06,29.83,29.56,6,6,4,24,15,,0.02,5,Rain,122
2014-1-13,45,42,39,42,40,37,100,88,76,29.59,29.52,29.42,6,6,6,20,13,,0.08,1,Rain,147
2014-1-14,45,42,40,40,38,36,95,84,68,29.62,29.57,29.47,6,6,6,21,12,,0.02,3,Rain,221
2014-1-15,50,45,40,50,46,40,100,94,80,29.33,29.26,29.21,6,6,3,20,13,,0.01,4,Rain,156
2014-1-16,46,42,38,43,41,37,100,89,81,29.15,29.08,29.00,6,6,6,17,12,,0.01,2,Rain,123
2014-1-17,46,42,38,43,41,37,100,90,79,29.24,29.10,28.97,6,6,6,18,12,,0.04,5,Rain,188
2014-1-18,49,44,38,45,43,38,100,87,74,29.18,29.14,29.09,6,6,5,21,13,,0.12,4,Rain,108
2014-1-19,45,40,35,44,40,33,100,90,73,29.47,29.34,29.24,6,6,6,14,8,,0.04,3,Rain,188
2014-1-20,45,40,35,43,38,34,100,93,81,29.86,29.77,29.65,6,6,6,12,7,,0.02,3,Rain,138
2014-1-21,44,40,36,43,39,35,100,92,79,29.77,29.65,29.56,6,6,5,20,13,,0.16,4,Rain,129
2014-1-22,46,43,40,46,43,40,100,94,86,29.80,29.65,29.56,6,5,3,15,12,,0.04,5,Rain,201
2014-1-23,45,41,37,43,38,35,93,81,61,29.92,29.80,29.68,6,6,4,28,18,38,0.08,3,Rain-Hail,284
2014-1-24,47,40,35,47,40,33,100,95,84,29.83,29.78,29.74,6,4,2,21,13,,0.20,6,Rain,131
2014-1-25,48,45,42,46,41,35,99,82,61,29.86,29.73,29.62,6,6,1,33,20,45,0.08,3,Rain,237
2014-1-26,46,42,38,43,37,33,100,80,54,29.62,29.22,29.12,6,5,2,33,22,41,0.31,4,Rain,211
2014-1-27,45,42,38,41,40,34,100,85,69,29.00,28.98,28.94,6,6,4,31,24,,0.03,4,Rain,209
2014-1-28,45,42,40,43,41,39,100,93,83,29.03,28.88,28.80,6,6,4,15,13,,0.08,5,Rain,104
2014-1-29,46,42,39,41,38,33,93,81,67,29.62,29.47,29.30,6,6,6,20,15,,0.01,4,Rain,78
2014-1-30,38,38,37,36,32,31,93,78,66,29.68,29.68,29.65,6,6,5,14,9,,0.01,6,,77
2014-1-31,44,38,33,43,38,33,100,93,84,29.50,29.20,28.91,6,4,1,26,16,40,0.47,6,Rain-Snow,140